Swanlake, Idaho
Current Conditions -  °F | °C
As of 11:51 AM on Thursday 27 Nov 2014 (Local Time) from KLGU Reporting Station
Clear Clear  
Wind Chill: 42°   Ceiling: Unl
Heat Index: 44°   Visibility: 10mi
Dew Point: 36°   Wind: 5mph
Humidity: 73%   Direction: 270°W
Pressure: 30.27"   Gusts: NA
Location:  42.31°N, 112.01°W
Report Text: KLGU 271851Z AUTO 27004KT 10SM CLR 07/02 A3027 RMK AO2 SLP255 T00670022
Loading
Personal Weather Stations






























Interactive Weather Map New forecast layout! Learn more

10-Day Weather Forecast

Advertisements
Track Severe Weather on mobile